Time;durP1;ratioP1;P1;durP2;ratioP2;P2;SDS_P1;SDS_P2;PMS_P1;PMS_P2;Temp;Humidity;BMP_temperature;BMP_pressure;BME280_temperature;BME280_humidity;BME280_pressure;Samples;Min_cycle;Max_cycle;Signal;HPM_P1;HPM_P2
2022/03/24 00:00:53;;;;;;;54.95;27.38;;;8.80;90.60;;;;;;4250229;27;20035;-89
2022/03/24 00:02:54;;;;;;;53.22;28.35;;;8.70;90.70;;;;;;4251806;27;20079;-88
2022/03/24 00:04:55;;;;;;;53.05;27.90;;;9.50;91.00;;;;;;4236702;27;20054;-88
2022/03/24 00:06:55;;;;;;;51.08;26.85;;;8.80;91.00;;;;;;4265973;27;20039;-89
2022/03/24 00:08:56;;;;;;;54.65;27.88;;;9.60;91.30;;;;;;4241744;27;20046;-89
2022/03/24 00:11:00;;;;;;;50.45;27.73;;;8.70;91.10;;;;;;4256433;27;20418;-87
2022/03/24 00:13:01;;;;;;;52.58;26.65;;;9.10;91.10;;;;;;4250378;27;20523;-88
2022/03/24 00:15:06;;;;;;;47.67;27.65;;;9.00;91.20;;;;;;4236907;27;20050;-88
2022/03/24 00:17:07;;;;;;;50.50;25.83;;;8.50;91.20;;;;;;4255891;27;20077;-87
2022/03/24 00:19:08;;;;;;;45.10;25.17;;;8.90;91.50;;;;;;4266348;27;20062;-88
2022/03/24 00:21:09;;;;;;;41.90;24.33;;;;;;;;;;4247476;27;20051;-87
2022/03/24 00:23:10;;;;;;;43.33;25.10;;;;;;;;;;4247326;27;20061;-88
2022/03/24 00:25:11;;;;;;;44.08;24.33;;;8.30;91.20;;;;;;4247134;27;20051;-87
2022/03/24 00:27:14;;;;;;;40.85;24.65;;;8.50;91.70;;;;;;4246975;27;20129;-88
2022/03/24 00:29:15;;;;;;;39.55;22.40;;;8.50;92.10;;;;;;4248077;27;20114;-88
2022/03/24 00:31:15;;;;;;;44.05;24.38;;;8.40;92.20;;;;;;4248766;27;20031;-88
2022/03/24 00:33:16;;;;;;;45.03;24.67;;;8.00;92.40;;;;;;4247630;27;20076;-89
2022/03/24 00:35:17;;;;;;;41.97;24.23;;;8.20;92.40;;;;;;4248237;27;20035;-89
2022/03/24 00:37:18;;;;;;;43.95;23.73;;;8.90;92.70;;;;;;4248210;27;20039;-88
2022/03/24 00:39:19;;;;;;;43.78;24.80;;;8.90;92.90;;;;;;4230128;28;20043;-89
2022/03/24 00:41:21;;;;;;;52.10;26.42;;;7.80;92.70;;;;;;4229671;28;20057;-89
2022/03/24 00:43:22;;;;;;;51.10;26.80;;;7.80;92.70;;;;;;4230023;28;20082;-88
2022/03/24 00:45:23;;;;;;;52.22;27.67;;;8.80;93.10;;;;;;4212882;28;20051;-88
2022/03/24 00:47:25;;;;;;;49.00;25.42;;;8.10;93.10;;;;;;4240514;27;20082;-88
2022/03/24 00:49:26;;;;;;;48.70;25.67;;;7.70;93.10;;;;;;4228845;28;20092;-88
2022/03/24 00:51:28;;;;;;;45.72;26.45;;;8.70;93.30;;;;;;4229769;28;20071;-88
2022/03/24 00:53:29;;;;;;;47.28;26.02;;;7.60;93.10;;;;;;4230448;28;20043;-88
2022/03/24 00:55:30;;;;;;;45.67;24.50;;;8.40;93.30;;;;;;4212071;28;20073;-88
2022/03/24 00:57:31;;;;;;;41.83;23.08;;;7.60;93.20;;;;;;4231368;28;20512;-88
2022/03/24 00:59:31;;;;;;;45.47;25.05;;;7.50;93.20;;;;;;4212767;28;20189;-88
2022/03/24 01:01:32;;;;;;;45.63;25.95;;;8.40;93.90;;;;;;4229984;28;20569;-88
2022/03/24 01:03:34;;;;;;;52.90;27.65;;;7.40;93.40;;;;;;4230833;28;20047;-88
2022/03/24 01:05:37;;;;;;;50.42;25.77;;;7.90;93.50;;;;;;4241828;27;20588;-88
2022/03/24 01:07:39;;;;;;;48.28;25.20;;;8.40;93.80;;;;;;4243744;27;20052;-87
2022/03/24 01:09:39;;;;;;;46.47;25.73;;;7.40;93.30;;;;;;4229440;28;20051;-88
2022/03/24 01:11:40;;;;;;;45.47;25.75;;;7.50;93.60;;;;;;4230910;28;20075;-88
2022/03/24 01:13:41;;;;;;;49.83;25.05;;;7.40;93.70;;;;;;4232884;28;20047;-88
2022/03/24 01:15:45;;;;;;;52.38;27.52;;;7.40;93.70;;;;;;4231278;28;20451;-88
2022/03/24 01:17:47;;;;;;;48.22;26.23;;;7.30;93.60;;;;;;4229414;28;20043;-87
2022/03/24 01:19:48;;;;;;;52.17;26.83;;;7.60;93.80;;;;;;4229654;28;20474;-89
2022/03/24 01:21:49;;;;;;;48.90;27.13;;;7.30;93.80;;;;;;4228909;28;20562;-88
2022/03/24 01:23:50;;;;;;;50.03;26.83;;;7.70;94.10;;;;;;4230477;28;20069;-88
2022/03/24 01:25:54;;;;;;;48.88;26.05;;;7.70;93.90;;;;;;4217166;28;20044;-88
2022/03/24 01:27:55;;;;;;;53.08;27.95;;;7.30;93.80;;;;;;4229251;28;20063;-88
2022/03/24 01:29:57;;;;;;;54.60;28.52;;;8.40;94.30;;;;;;4233780;27;20047;-88
2022/03/24 01:31:59;;;;;;;56.35;29.38;;;7.80;94.30;;;;;;4230365;28;20399;-89
2022/03/24 01:34:00;;;;;;;53.50;28.17;;;7.60;94.30;;;;;;4230612;28;20069;-88
2022/03/24 01:36:02;;;;;;;55.30;29.95;;;7.80;94.20;;;;;;4231203;28;20047;-88
2022/03/24 01:38:03;;;;;;;53.53;27.73;;;7.20;94.00;;;;;;4235984;28;20031;-89
2022/03/24 01:40:06;;;;;;;52.65;27.92;;;8.40;94.30;;;;;;4229605;28;20050;-89
2022/03/24 01:42:07;;;;;;;61.50;30.92;;;7.30;94.10;;;;;;4229408;28;20568;-88
2022/03/24 01:44:27;;;;;;;60.83;29.10;;;7.20;94.40;;;;;;4230116;28;20077;-88
2022/03/24 01:46:28;;;;;;;59.42;28.52;;;7.20;94.90;;;;;;4229869;28;20066;-88
2022/03/24 01:48:30;;;;;;;61.03;31.55;;;8.20;94.70;;;;;;4229853;28;20044;-88
2022/03/24 01:50:33;;;;;;;55.60;29.40;;;6.70;94.40;;;;;;4239089;28;20054;-89
2022/03/24 01:52:34;;;;;;;63.90;31.35;;;7.80;94.70;;;;;;4212202;28;20071;-88
2022/03/24 01:54:40;;;;;;;57.80;29.90;;;7.20;94.50;;;;;;4247164;28;20088;-88
2022/03/24 01:56:41;;;;;;;65.55;32.70;;;7.10;94.40;;;;;;4229385;28;20043;-87
2022/03/24 01:58:42;;;;;;;60.60;29.17;;;7.70;94.80;;;;;;4229983;28;20539;-88
2022/03/24 02:00:46;;;;;;;57.75;29.58;;;7.00;94.80;;;;;;4230312;28;20106;-88
2022/03/24 02:02:48;;;;;;;53.60;27.30;;;7.10;94.80;;;;;;4229674;28;20054;-88
2022/03/24 02:04:49;;;;;;;48.53;26.60;;;7.80;95.00;;;;;;4212891;28;20516;-88
2022/03/24 02:06:51;;;;;;;42.70;20.80;;;7.80;94.90;;;;;;4229602;28;20044;-88
2022/03/24 02:08:55;;;;;;;36.75;18.05;;;7.50;94.70;;;;;;4231699;28;20114;-88
2022/03/24 02:10:56;;;;;;;43.10;20.63;;;7.20;94.70;;;;;;4229431;28;20495;-89
2022/03/24 02:12:57;;;;;;;29.95;16.02;;;7.80;95.20;;;;;;4229256;28;20044;-88
2022/03/24 02:14:59;;;;;;;35.08;17.67;;;6.60;94.80;;;;;;4226276;28;20071;-89
2022/03/24 02:17:00;;;;;;;44.92;23.52;;;7.40;95.00;;;;;;4241504;27;20062;-89
2022/03/24 02:19:10;;;;;;;44.17;22.35;;;6.90;95.20;;;;;;4228412;28;20048;-89
2022/03/24 02:21:15;;;;;;;47.63;24.38;;;6.60;95.50;;;;;;4254625;27;20088;-88
2022/03/24 02:23:15;;;;;;;52.97;25.52;;;7.40;95.80;;;;;;4240727;27;20078;-88
2022/03/24 02:25:17;;;;;;;46.80;23.88;;;7.10;95.80;;;;;;4231998;28;20058;-88
2022/03/24 02:27:18;;;;;;;49.65;28.77;;;7.70;95.80;;;;;;4250717;27;20039;-88
2022/03/24 02:29:25;;;;;;;47.78;25.25;;;7.30;95.90;;;;;;4240483;27;20073;-88
2022/03/24 02:31:29;;;;;;;57.72;26.25;;;6.50;95.70;;;;;;4249972;27;20039;-87
2022/03/24 02:33:31;;;;;;;53.38;26.63;;;7.00;95.80;;;;;;4249744;27;20504;-88
2022/03/24 02:35:32;;;;;;;55.05;27.85;;;6.50;95.70;;;;;;4239137;27;20055;-88
2022/03/24 02:37:33;;;;;;;50.75;25.90;;;6.10;95.40;;;;;;4234903;27;20075;-88
2022/03/24 02:39:45;;;;;;;51.60;26.10;;;7.70;95.80;;;;;;4233070;28;20052;-88
2022/03/24 02:41:57;;;;;;;59.05;29.45;;;7.20;96.10;;;;;;4231686;28;20063;-88
2022/03/24 02:43:58;;;;;;;56.80;30.38;;;6.50;96.10;;;;;;4215537;28;20044;-88
2022/03/24 02:45:59;;;;;;;55.70;27.90;;;6.00;95.70;;;;;;4251173;27;20035;-88
2022/03/24 02:48:02;;;;;;;59.70;30.08;;;6.90;96.00;;;;;;4215524;28;20054;-88
2022/03/24 02:50:04;;;;;;;57.97;29.85;;;7.40;96.30;;;;;;4237907;27;20055;-89
2022/03/24 02:52:05;;;;;;;56.75;28.70;;;6.40;96.10;;;;;;4232336;28;20519;-88
2022/03/24 02:54:08;;;;;;;59.58;32.00;;;6.40;96.30;;;;;;4249724;27;20050;-88
2022/03/24 02:56:09;;;;;;;58.75;29.33;;;7.20;96.70;;;;;;4225350;28;20044;-88
2022/03/24 02:58:10;;;;;;;57.70;29.40;;;7.40;96.70;;;;;;4231949;28;20046;-89
2022/03/24 03:00:11;;;;;;;55.13;29.90;;;7.50;96.50;;;;;;4267205;27;20406;-88
2022/03/24 03:02:16;;;;;;;58.00;29.58;;;6.30;96.30;;;;;;4249530;27;20051;-88
2022/03/24 03:04:17;;;;;;;52.95;28.17;;;6.30;96.40;;;;;;4233185;28;20126;-89
2022/03/24 03:06:19;;;;;;;57.92;28.40;;;6.70;96.60;;;;;;4250175;27;20089;-88
2022/03/24 03:08:21;;;;;;;57.00;28.67;;;6.80;96.70;;;;;;4250784;27;20115;-88
2022/03/24 03:10:22;;;;;;;53.55;27.58;;;6.50;96.70;;;;;;4250102;27;20031;-89
2022/03/24 03:12:24;;;;;;;57.00;29.60;;;6.60;96.80;;;;;;4249616;27;20107;-88
2022/03/24 03:14:27;;;;;;;59.28;29.48;;;7.30;96.90;;;;;;4231408;28;20051;-89
2022/03/24 03:16:28;;;;;;;57.67;28.90;;;6.90;96.80;;;;;;4214148;28;20051;-89
2022/03/24 03:18:31;;;;;;;58.22;29.23;;;6.70;96.70;;;;;;4250053;27;20035;-88
2022/03/24 03:20:31;;;;;;;58.08;27.63;;;6.30;96.70;;;;;;4248801;27;20055;-89
2022/03/24 03:22:33;;;;;;;54.08;27.95;;;6.20;96.50;;;;;;4251940;27;20539;-88
2022/03/24 03:24:35;;;;;;;57.05;29.10;;;5.50;96.30;;;;;;4248393;27;20081;-89
2022/03/24 03:26:36;;;;;;;58.97;29.85;;;7.20;97.00;;;;;;4255159;27;20414;-89
2022/03/24 03:28:38;;;;;;;54.50;27.98;;;7.30;97.00;;;;;;4251838;27;20041;-88
2022/03/24 03:30:40;;;;;;;62.55;30.70;;;6.10;96.70;;;;;;4231191;28;20081;-88
2022/03/24 03:32:42;;;;;;;65.03;32.28;;;6.50;97.00;;;;;;4235365;27;20043;-88
2022/03/24 03:34:43;;;;;;;61.67;33.55;;;6.80;97.20;;;;;;4212826;28;20480;-88
2022/03/24 03:36:44;;;;;;;67.55;33.65;;;6.90;97.40;;;;;;4213679;28;20128;-89
2022/03/24 03:38:46;;;;;;;68.53;33.10;;;6.00;97.20;;;;;;4226066;28;20044;-89
2022/03/24 03:40:48;;;;;;;62.50;31.83;;;6.30;97.30;;;;;;4230770;28;20051;-87
2022/03/24 03:42:51;;;;;;;64.63;33.22;;;6.00;97.30;;;;;;4230826;28;20108;-88
2022/03/24 03:45:01;;;;;;;67.68;31.63;;;6.60;97.30;;;;;;4244383;27;20043;-88
2022/03/24 03:47:02;;;;;;;62.30;31.60;;;6.00;97.30;;;;;;4241471;27;20130;-88
2022/03/24 03:49:07;;;;;;;67.90;33.00;;;6.00;97.60;;;;;;4231737;28;20047;-88
2022/03/24 03:51:08;;;;;;;63.60;30.92;;;6.00;97.70;;;;;;4245870;27;20046;-88
2022/03/24 03:53:10;;;;;;;68.90;32.35;;;7.00;97.90;;;;;;4257113;27;20035;-88
2022/03/24 03:55:11;;;;;;;66.68;31.48;;;6.60;97.90;;;;;;4266573;27;20094;-88
2022/03/24 03:57:11;;;;;;;59.95;30.27;;;7.00;98.10;;;;;;4231286;27;20431;-88
2022/03/24 03:59:13;;;;;;;67.13;32.80;;;7.00;98.10;;;;;;4248804;27;20039;-88
2022/03/24 04:01:14;;;;;;;67.40;33.50;;;6.60;98.20;;;;;;4250059;27;20070;-88
2022/03/24 04:03:15;;;;;;;69.03;33.20;;;7.00;98.30;;;;;;4265346;27;20035;-88
2022/03/24 04:05:23;;;;;;;67.43;32.70;;;6.50;98.30;;;;;;4238790;27;20568;-89
2022/03/24 04:07:24;;;;;;;64.78;30.98;;;6.50;98.40;;;;;;4248830;27;20043;-89
2022/03/24 04:09:25;;;;;;;63.78;30.35;;;6.10;98.20;;;;;;4248736;27;20100;-88
2022/03/24 04:11:26;;;;;;;64.22;32.03;;;6.60;98.40;;;;;;4258043;27;20043;-88
2022/03/24 04:13:28;;;;;;;69.65;32.97;;;6.10;98.20;;;;;;4264264;27;20051;-89
2022/03/24 04:15:29;;;;;;;65.43;30.85;;;6.70;98.30;;;;;;4213471;28;20097;-88
2022/03/24 04:17:31;;;;;;;66.30;32.13;;;6.70;98.40;;;;;;4230386;28;20044;-88
2022/03/24 04:19:32;;;;;;;62.28;30.73;;;6.80;98.40;;;;;;4250440;27;20153;-88
2022/03/24 04:21:33;;;;;;;67.72;31.77;;;6.40;98.20;;;;;;4246976;27;20063;-87
2022/03/24 04:23:40;;;;;;;68.72;33.53;;;5.70;98.10;;;;;;4236438;27;20051;-88
2022/03/24 04:25:41;;;;;;;64.05;31.23;;;6.70;98.50;;;;;;4229583;28;20499;-89
2022/03/24 04:27:41;;;;;;;60.85;30.33;;;5.60;98.30;;;;;;4230422;28;20042;-89
2022/03/24 04:29:43;;;;;;;59.30;29.75;;;6.30;98.40;;;;;;4223138;28;20075;-88
2022/03/24 04:31:45;;;;;;;66.15;31.33;;;6.30;98.60;;;;;;4265600;27;20046;-88
2022/03/24 04:33:46;;;;;;;58.22;29.45;;;6.50;98.70;;;;;;4265648;27;20490;-88
2022/03/24 04:35:46;;;;;;;52.08;27.98;;;6.00;98.50;;;;;;4247120;27;20043;-87
2022/03/24 04:37:49;;;;;;;51.65;27.17;;;5.40;98.20;;;;;;4248002;27;20039;-88
2022/03/24 04:39:50;;;;;;;52.38;25.48;;;5.40;98.20;;;;;;4230956;28;20047;-88
2022/03/24 04:41:50;;;;;;;53.40;27.23;;;6.20;98.50;;;;;;4226735;28;20044;-88
2022/03/24 04:43:51;;;;;;;56.08;28.52;;;5.80;98.50;;;;;;4261566;27;20054;-88
2022/03/24 04:45:52;;;;;;;55.40;27.10;;;6.40;98.90;;;;;;4230756;28;20114;-88
2022/03/24 04:47:54;;;;;;;59.53;28.33;;;5.40;98.70;;;;;;4227252;28;20051;-88
2022/03/24 04:49:55;;;;;;;52.70;25.80;;;6.50;98.80;;;;;;4247413;27;20039;-88
2022/03/24 04:51:59;;;;;;;56.30;27.15;;;6.30;98.70;;;;;;4265829;27;20039;-88
2022/03/24 04:54:00;;;;;;;64.53;31.27;;;6.00;98.70;;;;;;4216609;28;20052;-88
2022/03/24 04:56:02;;;;;;;61.40;30.70;;;5.50;98.90;;;;;;4248784;27;20075;-88
2022/03/24 04:58:03;;;;;;;60.92;28.48;;;5.30;98.80;;;;;;4249601;27;20081;-89
2022/03/24 05:00:05;;;;;;;61.03;30.80;;;6.20;99.10;;;;;;4231039;28;20047;-87
2022/03/24 05:02:08;;;;;;;58.10;30.42;;;5.30;98.80;;;;;;4230987;28;20535;-88
2022/03/24 05:04:10;;;;;;;60.63;28.77;;;6.40;99.10;;;;;;4231601;28;20660;-87
2022/03/24 05:06:11;;;;;;;61.80;28.60;;;6.00;99.00;;;;;;4231183;28;20091;-88
2022/03/24 05:08:11;;;;;;;63.55;29.67;;;5.40;99.10;;;;;;4238600;27;20051;-88
2022/03/24 05:10:12;;;;;;;63.90;28.90;;;5.40;99.30;;;;;;4230705;28;20126;-87
2022/03/24 05:12:14;;;;;;;55.50;29.25;;;5.20;99.30;;;;;;4231115;28;20043;-88
2022/03/24 05:14:15;;;;;;;61.53;29.65;;;6.10;99.30;;;;;;4249043;27;20042;-88
2022/03/24 05:16:16;;;;;;;63.67;31.38;;;6.40;99.50;;;;;;4214209;28;20083;-88
2022/03/24 05:18:16;;;;;;;66.70;31.88;;;6.30;99.60;;;;;;4249145;27;20509;-88
2022/03/24 05:20:17;;;;;;;64.18;30.88;;;5.50;99.40;;;;;;4230356;28;20043;-88
2022/03/24 05:22:18;;;;;;;65.25;30.08;;;5.50;99.40;;;;;;4248964;27;20509;-89
2022/03/24 05:24:19;;;;;;;65.50;31.50;;;5.80;99.50;;;;;;4230876;28;20099;-89
2022/03/24 05:26:23;;;;;;;64.30;32.47;;;5.80;99.50;;;;;;4238826;28;20047;-88
2022/03/24 05:28:24;;;;;;;63.63;29.67;;;5.50;99.50;;;;;;4230452;28;20466;-87
2022/03/24 05:30:26;;;;;;;61.33;29.25;;;6.40;99.70;;;;;;4214067;28;20095;-87
2022/03/24 05:32:27;;;;;;;59.05;29.90;;;6.00;99.50;;;;;;4230964;28;20115;-87
2022/03/24 05:34:31;;;;;;;59.30;28.15;;;5.50;99.30;;;;;;4250326;27;20118;-88
2022/03/24 05:36:33;;;;;;;60.03;28.92;;;6.10;99.60;;;;;;4239918;28;20046;-88
2022/03/24 05:38:33;;;;;;;62.78;31.10;;;6.00;99.60;;;;;;4258863;27;20087;-89
2022/03/24 05:40:35;;;;;;;61.05;28.30;;;6.40;99.60;;;;;;4263112;27;20038;-87
2022/03/24 05:42:36;;;;;;;60.00;29.35;;;6.40;99.60;;;;;;4258173;27;20390;-87
2022/03/24 05:44:37;;;;;;;60.38;29.55;;;5.10;99.30;;;;;;4235856;28;20039;-88
2022/03/24 05:46:44;;;;;;;62.72;30.25;;;5.40;99.40;;;;;;4212663;28;20052;-88
2022/03/24 05:48:45;;;;;;;58.03;29.00;;;6.30;99.60;;;;;;4230429;28;20051;-88
2022/03/24 05:50:45;;;;;;;55.17;27.65;;;5.10;99.40;;;;;;4260081;27;20047;-88
2022/03/24 05:52:49;;;;;;;59.55;29.70;;;5.80;99.50;;;;;;4226711;28;20134;-87
2022/03/24 05:54:50;;;;;;;58.17;27.80;;;5.30;99.30;;;;;;4258406;27;20038;-88
2022/03/24 05:56:51;;;;;;;59.08;26.83;;;5.50;99.20;;;;;;4266838;27;20039;-87
2022/03/24 05:58:52;;;;;;;60.70;30.05;;;6.00;99.90;;;;;;4269374;27;20117;-89
2022/03/24 06:00:54;;;;;;;54.55;27.75;;;6.00;99.40;;;;;;4233964;28;20084;-88
2022/03/24 06:02:55;;;;;;;56.58;27.75;;;6.00;99.50;;;;;;4250606;27;20039;-88
2022/03/24 06:04:58;;;;;;;55.40;28.15;;;5.60;99.50;;;;;;4255488;27;20039;-86
2022/03/24 06:07:01;;;;;;;55.13;27.75;;;5.30;99.50;;;;;;4268451;27;20502;-85
2022/03/24 06:09:04;;;;;;;57.55;27.77;;;6.40;99.70;;;;;;4268218;27;20109;-87
2022/03/24 06:11:13;;;;;;;50.50;25.52;;;5.30;99.20;;;;;;4250211;27;20047;-87
2022/03/24 06:13:14;;;;;;;52.37;26.03;;;5.30;99.30;;;;;;4250186;27;20061;-87
2022/03/24 06:15:15;;;;;;;52.10;25.52;;;5.70;99.40;;;;;;4267902;27;20296;-84
2022/03/24 06:17:15;;;;;;;53.63;26.73;;;5.90;99.40;;;;;;4232593;28;20055;-86
2022/03/24 06:19:16;;;;;;;55.13;27.35;;;6.50;99.60;;;;;;4249653;27;20043;-86
2022/03/24 06:21:17;;;;;;;55.22;28.55;;;6.50;99.80;;;;;;4250229;27;20051;-91
2022/03/24 06:23:17;;;;;;;52.13;25.27;;;6.30;99.70;;;;;;4250361;27;20403;-88
2022/03/24 06:25:21;;;;;;;52.75;26.23;;;5.40;99.40;;;;;;4261855;27;20418;-87
2022/03/24 06:27:23;;;;;;;49.65;25.75;;;5.50;99.50;;;;;;4232762;28;20043;-88
2022/03/24 06:29:24;;;;;;;50.45;25.65;;;6.60;99.90;;;;;;4244776;27;20074;-89
2022/03/24 06:31:25;;;;;;;50.97;24.88;;;5.60;99.80;;;;;;4239661;27;20108;-89
2022/03/24 06:33:26;;;;;;;50.17;25.45;;;6.70;99.90;;;;;;4252646;27;20034;-89
2022/03/24 06:35:27;;;;;;;54.17;25.30;;;6.50;99.90;;;;;;4218420;28;20524;-89
2022/03/24 06:37:28;;;;;;;53.63;26.23;;;6.50;99.90;;;;;;4237061;27;20045;-89
2022/03/24 06:39:29;;;;;;;53.92;27.33;;;6.70;99.90;;;;;;4239017;28;20051;-88
2022/03/24 06:41:31;;;;;;;58.15;27.02;;;5.70;99.90;;;;;;4251121;28;20039;-89
2022/03/24 06:43:34;;;;;;;49.75;24.40;;;5.80;99.90;;;;;;4267936;27;20072;-89
2022/03/24 06:45:36;;;;;;;47.92;23.27;;;5.80;99.90;;;;;;4233367;28;20055;-89
2022/03/24 06:47:39;;;;;;;47.30;23.23;;;5.90;99.70;;;;;;4250986;28;20047;-88
2022/03/24 06:49:39;;;;;;;52.95;25.50;;;6.00;99.90;;;;;;4226539;28;20055;-88
2022/03/24 06:51:41;;;;;;;51.92;25.73;;;7.20;99.90;;;;;;4235041;28;20036;-89
2022/03/24 06:53:42;;;;;;;50.63;25.88;;;6.90;99.90;;;;;;4245427;27;20085;-86
2022/03/24 06:55:43;;;;;;;53.17;26.65;;;6.30;99.90;;;;;;4246917;27;20138;-89
2022/03/24 06:57:44;;;;;;;54.08;27.20;;;7.10;99.90;;;;;;4233159;28;20047;-86
2022/03/24 06:59:45;;;;;;;64.03;29.70;;;6.50;99.90;;;;;;4232400;28;20047;-88
2022/03/24 07:01:46;;;;;;;53.35;24.40;;;7.30;99.90;;;;;;4236919;27;20058;-87
2022/03/24 07:03:47;;;;;;;55.78;27.45;;;7.90;99.90;;;;;;4215911;28;20047;-88
2022/03/24 07:05:48;;;;;;;56.78;27.85;;;6.90;99.80;;;;;;4231565;28;20047;-89
2022/03/24 07:07:49;;;;;;;60.40;31.10;;;7.00;99.90;;;;;;4232600;28;20503;-88
2022/03/24 07:09:50;;;;;;;64.53;31.83;;;7.90;99.90;;;;;;4232712;28;20051;-89
2022/03/24 07:11:51;;;;;;;68.93;33.50;;;7.60;99.90;;;;;;4232714;28;20050;-87
2022/03/24 07:13:52;;;;;;;70.13;33.38;;;8.50;99.90;;;;;;4238550;27;20043;-88
2022/03/24 07:15:53;;;;;;;71.35;34.88;;;7.60;99.60;;;;;;4251866;27;20168;-88
2022/03/24 07:17:53;;;;;;;73.40;35.38;;;7.80;99.60;;;;;;4237990;27;20055;-87
2022/03/24 07:19:54;;;;;;;70.40;36.55;;;8.50;99.70;;;;;;4235305;28;20051;-87
2022/03/24 07:21:55;;;;;;;67.70;34.00;;;8.60;99.70;;;;;;4231842;28;20114;-88
2022/03/24 07:23:55;;;;;;;67.43;33.20;;;8.80;99.50;;;;;;4250010;27;20102;-88
2022/03/24 07:25:56;;;;;;;69.72;34.20;;;8.80;99.40;;;;;;4221311;28;20052;-88
2022/03/24 07:27:59;;;;;;;69.72;33.60;;;;;;;;;;4266240;27;20041;-87
2022/03/24 07:30:03;;;;;;;75.88;37.05;;;9.70;99.40;;;;;;4217221;28;20051;-87
2022/03/24 07:32:04;;;;;;;56.30;30.02;;;8.90;99.00;;;;;;4231660;28;20126;-88
2022/03/24 07:34:06;;;;;;;57.90;30.33;;;9.10;99.00;;;;;;4232175;28;20104;-88
2022/03/24 07:36:07;;;;;;;64.43;28.92;;;9.20;98.80;;;;;;4231381;28;20092;-87
2022/03/24 07:38:09;;;;;;;58.30;31.00;;;;;;;;;;4239189;27;20046;-87
2022/03/24 07:40:11;;;;;;;53.50;29.45;;;;;;;;;;4248788;27;20043;-88
2022/03/24 07:42:14;;;;;;;60.40;30.65;;;9.80;98.90;;;;;;4266635;27;20058;-88
2022/03/24 07:44:15;;;;;;;59.97;30.63;;;9.20;98.90;;;;;;4248755;27;20123;-88
2022/03/24 07:46:16;;;;;;;53.95;28.75;;;;;;;;;;4249725;27;20423;-89
2022/03/24 07:48:25;;;;;;;62.45;31.48;;;;;;;;;;4231829;28;20044;-88
2022/03/24 07:50:26;;;;;;;60.10;32.13;;;;;;;;;;4258214;27;20051;-88
2022/03/24 07:52:32;;;;;;;62.17;31.45;;;;;;;;;;4215253;28;20052;-89
2022/03/24 07:54:51;;;;;;;61.45;32.15;;;;;;;;;;4231559;28;20044;-87
2022/03/24 07:56:52;;;;;;;56.58;30.77;;;;;;;;;;4231123;28;20554;-89
2022/03/24 07:58:54;;;;;;;54.72;29.17;;;;;;;;;;4231168;28;20058;-88
2022/03/24 08:00:57;;;;;;;57.28;30.67;;;;;;;;;;4267841;27;20042;-88
2022/03/24 08:02:58;;;;;;;59.42;30.40;;;;;;;;;;4231036;28;20048;-88
2022/03/24 08:05:00;;;;;;;56.40;29.73;;;;;;;;;;4267483;27;20038;-88
2022/03/24 08:07:01;;;;;;;60.95;30.83;;;;;;;;;;4248779;27;20135;-89
2022/03/24 08:09:03;;;;;;;54.40;31.27;;;;;;;;;;4267256;27;20075;-88
2022/03/24 08:11:05;;;;;;;53.53;29.80;;;;;;;;;;4261390;27;20047;-88
2022/03/24 08:13:10;;;;;;;56.60;30.48;;;;;;;;;;4250706;27;20562;-88
2022/03/24 08:15:12;;;;;;;61.78;31.42;;;;;;;;;;4266388;27;20115;-88
2022/03/24 08:17:13;;;;;;;57.92;31.80;;;;;;;;;;4240844;27;20121;-88
2022/03/24 08:19:15;;;;;;;60.13;30.92;;;;;;;;;;4249557;27;20050;-87
2022/03/24 08:21:17;;;;;;;52.95;31.63;;;;;;;;;;4265701;27;20430;-87
2022/03/24 08:23:18;;;;;;;63.15;33.75;;;;;;;;;;4267311;27;20069;-88
2022/03/24 08:25:20;;;;;;;57.00;31.77;;;;;;;;;;4264796;27;20539;-86
2022/03/24 08:27:22;;;;;;;56.40;31.05;;;;;;;;;;4262264;27;20049;-86
2022/03/24 08:29:23;;;;;;;50.83;29.63;;;;;;;;;;4240781;27;20047;-87
2022/03/24 08:31:24;;;;;;;56.72;30.75;;;;;;;;;;4242889;27;20043;-87
2022/03/24 08:33:27;;;;;;;52.20;30.80;;;;;;;;;;4245191;27;20118;-87
2022/03/24 08:35:28;;;;;;;57.42;33.42;;;;;;;;;;4248949;27;20045;-87
2022/03/24 08:37:29;;;;;;;56.58;32.65;;;;;;;;;;4252380;27;20110;-88
2022/03/24 08:39:30;;;;;;;61.78;32.10;;;;;;;;;;4251785;27;20043;-87
2022/03/24 08:41:31;;;;;;;56.85;30.98;;;;;;;;;;4250225;27;20118;-88
2022/03/24 08:43:33;;;;;;;60.65;32.05;;;;;;;;;;4252582;27;20177;-87
2022/03/24 08:45:34;;;;;;;58.83;33.13;;;;;;;;;;4244845;27;20043;-88
2022/03/24 08:47:35;;;;;;;57.45;31.67;;;;;;;;;;4251876;27;20051;-87
2022/03/24 08:49:37;;;;;;;55.55;30.65;;;;;;;;;;4251521;27;20753;-87
2022/03/24 08:51:38;;;;;;;52.85;30.33;;;;;;;;;;4252797;27;20043;-88
2022/03/24 08:53:39;;;;;;;58.28;31.15;;;;;;;;;;4235788;27;20629;-86
2022/03/24 08:55:40;;;;;;;55.05;30.52;;;;;;;;;;4258851;27;20039;-88
2022/03/24 08:57:43;;;;;;;53.08;29.92;;;;;;;;;;4260038;27;20053;-87
2022/03/24 08:59:44;;;;;;;52.80;30.85;;;;;;;;;;4259545;27;20050;-87
2022/03/24 09:01:45;;;;;;;55.55;31.95;;;;;;;;;;4218113;28;20040;-87
2022/03/24 09:03:49;;;;;;;59.28;31.52;;;;;;;;;;4261427;27;20050;-87
2022/03/24 09:05:50;;;;;;;50.17;28.98;;;;;;;;;;4250853;27;20131;-88
2022/03/24 09:07:51;;;;;;;54.33;28.05;;;;;;;;;;4252256;27;20047;-85
2022/03/24 09:09:52;;;;;;;52.58;30.40;;;;;;;;;;4251466;27;20035;-85
2022/03/24 09:11:53;;;;;;;52.88;29.65;;;;;;;;;;4234682;27;20044;-86
2022/03/24 09:13:54;;;;;;;49.50;28.40;;;;;;;;;;4256601;27;20042;-86
2022/03/24 09:15:56;;;;;;;52.55;29.65;;;;;;;;;;4265915;27;20072;-86
2022/03/24 09:17:57;;;;;;;49.92;28.73;;;;;;;;;;4247851;27;20043;-85
2022/03/24 09:19:58;;;;;;;51.13;27.60;;;;;;;;;;4245781;27;20035;-88
2022/03/24 09:22:04;;;;;;;56.05;30.73;;;;;;;;;;4229104;28;20167;-86
2022/03/24 09:24:05;;;;;;;48.08;28.80;;;;;;;;;;4247570;27;20072;-86
2022/03/24 09:26:08;;;;;;;53.20;29.23;;;;;;;;;;4228755;28;20044;-86
2022/03/24 09:28:10;;;;;;;53.10;29.40;;;;;;;;;;4247737;28;20040;-86
2022/03/24 09:30:12;;;;;;;44.85;27.05;;;;;;;;;;4247687;27;20592;-86
2022/03/24 09:32:13;;;;;;;49.13;27.13;;;;;;;;;;4249282;27;20039;-87
2022/03/24 09:34:15;;;;;;;46.75;27.95;;;;;;;;;;4251178;27;20130;-86
2022/03/24 09:36:16;;;;;;;51.45;26.55;;;;;;;;;;4250941;27;20118;-85
2022/03/24 09:38:17;;;;;;;50.53;27.67;;;;;;;;;;4232902;28;20521;-86
2022/03/24 09:40:19;;;;;;;47.95;27.33;;;;;;;;;;4251175;27;20550;-86
2022/03/24 09:42:21;;;;;;;54.50;28.70;;;;;;;;;;4232708;28;20522;-85
2022/03/24 09:44:22;;;;;;;49.03;28.48;;;;;;;;;;4251221;27;20047;-85
2022/03/24 09:46:24;;;;;;;44.83;27.60;;;;;;;;;;4250693;27;20399;-86
2022/03/24 09:48:25;;;;;;;47.63;27.38;;;;;;;;;;4251285;27;20531;-86
2022/03/24 09:50:26;;;;;;;48.75;28.98;;;;;;;;;;4250938;27;20505;-85
2022/03/24 09:52:28;;;;;;;48.10;28.60;;;;;;;;;;4251005;27;20115;-86
2022/03/24 09:54:29;;;;;;;48.90;28.50;;;;;;;;;;4250623;27;20035;-85
2022/03/24 09:56:30;;;;;;;53.42;28.33;;;;;;;;;;4250595;27;20039;-86
2022/03/24 09:58:31;;;;;;;45.90;27.95;;;;;;;;;;4250604;27;20039;-86
2022/03/24 10:00:33;;;;;;;49.70;29.70;;;;;;;;;;4250648;27;20054;-86
2022/03/24 10:02:34;;;;;;;48.92;29.83;;;;;;;;;;4250195;27;20047;-86
2022/03/24 10:04:51;;;;;;;56.25;30.20;;;;;;;;;;4232317;28;20051;-86
2022/03/24 10:07:03;;;;;;;53.90;30.48;;;;;;;;;;4232283;28;20093;-86
2022/03/24 10:09:04;;;;;;;58.63;30.25;;;;;;;;;;4250127;27;20066;-86
2022/03/24 10:11:09;;;;;;;54.83;31.75;;;;;;;;;;4257286;27;20110;-86
2022/03/24 10:13:10;;;;;;;51.28;31.40;;;;;;;;;;4267599;27;20070;-86
2022/03/24 10:15:12;;;;;;;47.67;28.50;;;;;;;;;;4248700;27;20092;-86
2022/03/24 10:17:14;;;;;;;49.60;29.83;;;;;;;;;;4250145;27;20078;-86
2022/03/24 10:19:16;;;;;;;51.70;30.00;;;;;;;;;;4250348;27;20062;-86
2022/03/24 10:21:23;;;;;;;48.50;28.90;;;;;;;;;;4249810;27;20059;-86
2022/03/24 10:23:24;;;;;;;48.53;29.30;;;;;;;;;;4249618;27;20058;-86
2022/03/24 10:25:25;;;;;;;53.38;31.10;;;;;;;;;;4250229;27;20146;-86
2022/03/24 10:27:27;;;;;;;46.20;29.13;;;;;;;;;;4231948;28;20069;-86
2022/03/24 10:29:29;;;;;;;52.03;30.60;;;;;;;;;;4249765;27;20108;-86
2022/03/24 10:31:35;;;;;;;45.75;27.52;;;;;;;;;;4249648;27;20095;-86
2022/03/24 10:33:38;;;;;;;46.85;27.35;;;;;;;;;;4250004;27;20555;-86
2022/03/24 10:35:39;;;;;;;46.30;28.27;;;;;;;;;;4249381;27;20049;-86
2022/03/24 10:37:47;;;;;;;54.70;28.88;;;;;;;;;;4249463;27;20039;-86
2022/03/24 10:39:58;;;;;;;46.60;27.48;;;;;;;;;;4249647;27;20047;-86
2022/03/24 10:42:14;;;;;;;51.50;28.27;;;;;;;;;;4249485;27;20114;-85
2022/03/24 10:44:15;;;;;;;45.58;26.52;;;;;;;;;;4249780;27;20099;-86
2022/03/24 10:46:18;;;;;;;42.25;26.88;;;;;;;;;;4249765;27;20042;-86
2022/03/24 10:48:21;;;;;;;42.25;25.15;;;;;;;;;;4249942;27;20440;-86
2022/03/24 10:50:25;;;;;;;42.58;24.95;;;;;;;;;;4230943;28;20101;-86